Portada
METAR-TAF:

METAR-TAF

Aeropuertos :

Aeropuerto de Chibougamau-Chapais

Chibougamau, Quebec, Canadá

latitud: 49-46N, longitud: 074-32W, altitud: 388 m

Observación

El informe se hizo hace 32 minutos, a las 20:00 UTC
Viento 6 kt del este-noreste
Temperatura -16°C
Humedad 78%
Presión 1014 hPa
Visibilidad: 14.5 km
Cielo despejado

METAR: CYMT 112000Z AUTO 06006KT 9SM CLR M16/M19 A2994 RMK SLP184

Hora: 15:32 (20:32 UTC)

Pronóstico

El informe se hizo hace 2 horas y 54 minutos, a las 17:38 UTC
Pronóstico válido del 11 a las 18 UTC al 12 a las 01 UTC
Viento 5 kt del este-noreste
Visibilidad: 10 km
Nubes dispersas a una altura de 1500 ft
Temporalmente
del 11 a las 18 UTC al 12 a las 01 UTC
Visibilidad: 8.0 km
Cielo nuboso a una altura de 1500 ft
poca nieve

TAF: CYMT 111738Z 1118/1201 07005KT P6SM SCT015 TEMPO 1118/1201 5SM -SN BKN015 RMK FCST BASED ON AUTO OBS. NXT FCST WILL BE ISSUED AT 121245Z

Observaciones y pronósticos meteorológicos de más de 4000 aeropuertos (mensajes METAR y TAF).

Los puntos amarillos y rojos representan las estaciones disponibles.

Ponga el ratón en el punto deseado para ver el nombre de la estación.

Haga clic para ver las observaciones y los pronósticos meteorológicos.

Para cambiar el mapa : haga clic en los botones verdes con una cruz de color negro para hacer un zoom, en el botón verde con un guión para alejar o en las flechas verdes para mapas adyacentes.


METAR-TAF: